createdAt,value
2018-12-06T00:00:19.081Z,94.60
2018-12-06T00:02:46.672Z,94.60
2018-12-06T00:05:14.263Z,94.30
2018-12-06T00:07:41.890Z,94.40
2018-12-06T00:10:09.473Z,94.60
2018-12-06T00:12:37.052Z,94.70
2018-12-06T00:15:25.913Z,94.70
2018-12-06T00:17:53.489Z,94.70
2018-12-06T00:20:21.079Z,94.80
2018-12-06T00:22:50.448Z,94.90
2018-12-06T00:25:18.055Z,95.00
2018-12-06T00:27:45.631Z,95.10
2018-12-06T00:30:31.258Z,95.20
2018-12-06T00:32:58.852Z,95.30
2018-12-06T00:35:26.782Z,95.40
2018-12-06T00:37:54.360Z,95.40
2018-12-06T00:40:22.714Z,95.80
2018-12-06T00:42:50.369Z,95.80
2018-12-06T00:45:17.952Z,95.30
2018-12-06T00:47:45.542Z,95.20
2018-12-06T00:50:13.178Z,95.30
2018-12-06T00:52:40.767Z,95.30
2018-12-06T00:55:08.348Z,95.50
2018-12-06T00:57:35.979Z,95.20
2018-12-06T01:00:04.378Z,94.90
2018-12-06T01:02:31.950Z,94.80
2018-12-06T01:04:59.561Z,95.00
2018-12-06T01:07:27.198Z,95.30
2018-12-06T01:09:55.610Z,95.00
2018-12-06T01:12:23.193Z,95.20
2018-12-06T01:14:50.770Z,95.00
2018-12-06T01:17:19.316Z,95.10
2018-12-06T01:19:46.919Z,95.20
2018-12-06T01:22:14.510Z,95.20
2018-12-06T01:24:42.119Z,95.40
2018-12-06T01:27:10.465Z,95.50
2018-12-06T01:29:38.128Z,95.50
2018-12-06T01:32:05.708Z,95.70
2018-12-06T01:34:33.292Z,95.70
2018-12-06T01:37:00.903Z,95.80
2018-12-06T01:39:28.498Z,95.80
2018-12-06T01:41:56.457Z,95.90
2018-12-06T01:44:24.043Z,95.90
2018-12-06T01:46:52.392Z,96.40
2018-12-06T01:49:20.471Z,96.40
2018-12-06T01:51:48.058Z,95.90
2018-12-06T01:54:16.413Z,95.50
2018-12-06T01:56:44.591Z,95.50
2018-12-06T01:59:12.182Z,95.30
2018-12-06T02:01:40.528Z,95.30
2018-12-06T02:04:08.166Z,95.30
2018-12-06T02:06:35.749Z,95.20
2018-12-06T02:09:03.336Z,95.40
2018-12-06T02:11:32.933Z,94.90
2018-12-06T02:14:00.522Z,94.90
2018-12-06T02:16:28.105Z,94.60
2018-12-06T02:18:55.733Z,94.70
2018-12-06T02:21:24.085Z,94.80
2018-12-06T02:23:51.661Z,94.80
2018-12-06T02:26:19.311Z,94.90
2018-12-06T02:28:46.899Z,94.90
2018-12-06T02:31:14.491Z,95.10
2018-12-06T02:33:42.136Z,95.20
2018-12-06T02:36:09.725Z,95.30
2018-12-06T02:38:37.312Z,95.30
2018-12-06T02:41:04.955Z,95.40
2018-12-06T02:43:32.548Z,95.50
2018-12-06T02:46:00.157Z,95.70
2018-12-06T02:48:27.808Z,95.80
2018-12-06T02:50:55.386Z,96.00
2018-12-06T02:53:22.967Z,95.50
2018-12-06T02:55:50.574Z,95.50
2018-12-06T02:58:18.151Z,95.50
2018-12-06T03:00:47.214Z,95.60
2018-12-06T03:03:14.795Z,95.60
2018-12-06T03:05:43.141Z,96.00
2018-12-06T03:08:10.763Z,96.00
2018-12-06T03:10:38.357Z,95.60
2018-12-06T03:13:06.095Z,95.80
2018-12-06T03:15:33.691Z,95.40
2018-12-06T03:18:01.277Z,95.30
2018-12-06T03:20:28.914Z,95.50
2018-12-06T03:22:56.493Z,95.50
2018-12-06T03:25:24.092Z,95.60
2018-12-06T03:27:51.719Z,95.70
2018-12-06T03:30:19.316Z,96.00
2018-12-06T03:32:47.662Z,95.50
2018-12-06T03:35:15.278Z,95.50
2018-12-06T03:37:42.866Z,95.50
2018-12-06T03:40:10.822Z,95.60
2018-12-06T03:42:38.413Z,95.60
2018-12-06T03:45:06.021Z,95.60
2018-12-06T03:47:33.617Z,95.60
2018-12-06T03:50:01.199Z,95.80
2018-12-06T03:52:28.833Z,95.40
2018-12-06T03:54:56.417Z,95.50
2018-12-06T03:57:24.010Z,95.70
2018-12-06T03:59:52.884Z,95.90
2018-12-06T04:02:20.464Z,95.90
2018-12-06T04:04:48.819Z,96.50
2018-12-06T04:07:16.487Z,96.20
2018-12-06T04:09:44.034Z,95.70
2018-12-06T04:12:11.889Z,95.80
2018-12-06T04:14:39.501Z,95.50
2018-12-06T04:17:07.857Z,95.50
2018-12-06T04:19:36.234Z,95.50
2018-12-06T04:22:03.822Z,95.60
2018-12-06T04:24:32.176Z,95.60
2018-12-06T04:26:59.783Z,95.60
2018-12-06T04:29:27.378Z,95.10
2018-12-06T04:31:55.003Z,95.10
2018-12-06T04:34:22.585Z,95.30
2018-12-06T04:36:50.189Z,95.40
2018-12-06T04:39:18.156Z,95.50
2018-12-06T04:41:45.734Z,95.60
2018-12-06T04:44:14.081Z,95.80
2018-12-06T04:46:41.692Z,95.80
2018-12-06T04:49:10.043Z,96.50
2018-12-06T04:51:38.521Z,96.50
2018-12-06T04:54:06.111Z,96.10
2018-12-06T04:56:34.464Z,95.80
2018-12-06T04:59:02.105Z,95.80
2018-12-06T05:01:29.686Z,95.80
2018-12-06T05:03:57.274Z,95.90
2018-12-06T05:06:26.552Z,96.30
2018-12-06T05:08:54.137Z,96.30
2018-12-06T05:11:22.492Z,96.20
2018-12-06T05:13:50.103Z,96.10
2018-12-06T05:16:17.686Z,95.80
2018-12-06T05:18:45.676Z,96.00
2018-12-06T05:21:13.261Z,95.60
2018-12-06T05:23:40.844Z,95.70
2018-12-06T05:26:09.224Z,95.80
2018-12-06T05:28:37.577Z,95.80
2018-12-06T05:31:05.227Z,95.70
2018-12-06T05:33:32.821Z,95.90
2018-12-06T05:36:00.437Z,96.00
2018-12-06T05:38:28.066Z,96.00
2018-12-06T05:40:55.650Z,96.10
2018-12-06T05:43:23.239Z,96.20
2018-12-06T05:45:50.901Z,96.20
2018-12-06T05:48:18.479Z,96.20
2018-12-06T05:50:46.060Z,96.10
2018-12-06T05:53:14.456Z,96.10
2018-12-06T05:55:42.039Z,96.10
2018-12-06T05:58:09.624Z,96.10
2018-12-06T06:00:38.017Z,96.20
2018-12-06T06:03:05.617Z,96.20
2018-12-06T06:05:33.208Z,96.50
2018-12-06T06:08:00.818Z,96.10
2018-12-06T06:10:29.170Z,96.00
2018-12-06T06:12:56.839Z,95.90
2018-12-06T06:15:24.425Z,95.60
2018-12-06T06:17:52.773Z,95.50
2018-12-06T06:20:20.450Z,95.40
2018-12-06T06:22:48.044Z,95.50
2018-12-06T06:25:16.784Z,95.60
2018-12-06T06:27:45.093Z,95.60
2018-12-06T06:30:12.665Z,95.60
2018-12-06T06:32:41.019Z,96.30
2018-12-06T06:35:09.169Z,96.30
2018-12-06T06:37:36.762Z,95.90
2018-12-06T06:40:04.355Z,96.10
2018-12-06T06:42:31.989Z,95.60
2018-12-06T06:44:59.571Z,95.60
2018-12-06T06:47:28.707Z,95.80
2018-12-06T06:49:56.031Z,95.80
2018-12-06T06:52:23.653Z,95.80
2018-12-06T06:54:51.284Z,95.90
2018-12-06T06:57:18.871Z,95.90
2018-12-06T06:59:46.470Z,95.90
2018-12-06T07:02:14.934Z,96.40
2018-12-06T07:04:42.516Z,96.30
2018-12-06T07:07:10.924Z,95.80
2018-12-06T07:09:38.565Z,95.80
2018-12-06T07:12:06.095Z,95.90
2018-12-06T07:14:33.739Z,95.90
2018-12-06T07:17:01.327Z,96.10
2018-12-06T07:19:28.904Z,95.70
2018-12-06T07:21:57.290Z,95.70
2018-12-06T07:24:24.886Z,95.70
2018-12-06T07:26:52.525Z,95.80
2018-12-06T07:29:20.425Z,95.80
2018-12-06T07:31:48.011Z,95.90
2018-12-06T07:34:15.644Z,96.00
2018-12-06T07:36:43.232Z,96.10
2018-12-06T07:39:10.819Z,96.10
2018-12-06T07:41:40.097Z,96.00
2018-12-06T07:44:07.680Z,96.00
2018-12-06T07:46:36.039Z,96.10
2018-12-06T07:49:03.653Z,96.10
2018-12-06T07:51:31.238Z,95.70
2018-12-06T07:53:58.876Z,95.60
2018-12-06T07:56:26.470Z,95.60
2018-12-06T07:58:54.059Z,95.60
2018-12-06T08:01:22.568Z,95.60
2018-12-06T08:03:50.114Z,95.50
2018-12-06T08:06:18.463Z,95.50
2018-12-06T08:08:46.113Z,95.40
2018-12-06T08:11:13.660Z,95.00
2018-12-06T08:13:41.330Z,94.70
2018-12-06T08:16:08.919Z,94.10
2018-12-06T08:18:36.496Z,94.10
2018-12-06T08:21:04.131Z,94.10
2018-12-06T08:23:31.719Z,94.30
2018-12-06T08:25:59.301Z,94.30
2018-12-06T08:28:26.936Z,94.50
2018-12-06T08:30:54.523Z,94.80
2018-12-06T08:33:22.877Z,94.70
2018-12-06T08:35:50.537Z,94.70
2018-12-06T08:38:18.128Z,94.80
2018-12-06T08:40:45.722Z,94.90
2018-12-06T08:43:13.382Z,95.30
2018-12-06T08:45:40.971Z,94.80
2018-12-06T08:48:08.579Z,94.70
2018-12-06T08:50:36.727Z,94.90
2018-12-06T08:53:04.319Z,95.00
2018-12-06T08:55:31.911Z,95.10
2018-12-06T08:57:59.892Z,95.20
2018-12-06T09:00:27.488Z,95.30
2018-12-06T09:02:55.100Z,95.30
2018-12-06T09:05:22.710Z,95.40
2018-12-06T09:07:50.336Z,95.30
2018-12-06T09:10:17.939Z,95.30
2018-12-06T09:12:45.568Z,95.40
2018-12-06T09:15:13.176Z,95.40
2018-12-06T09:17:40.758Z,95.50
2018-12-06T09:20:08.390Z,95.60
2018-12-06T09:22:35.980Z,95.60
2018-12-06T09:25:03.561Z,95.60
2018-12-06T09:27:31.750Z,95.50
2018-12-06T09:29:59.271Z,95.40
2018-12-06T09:32:26.857Z,95.30
2018-12-06T09:34:54.489Z,95.00
2018-12-06T09:37:22.082Z,95.00
2018-12-06T09:39:49.676Z,95.10
2018-12-06T09:42:17.349Z,94.90
2018-12-06T09:44:44.945Z,94.70
2018-12-06T09:47:12.618Z,94.60
2018-12-06T09:49:40.149Z,94.60
2018-12-06T09:52:07.733Z,94.50
2018-12-06T09:54:36.690Z,94.40
2018-12-06T09:57:05.627Z,94.40
2018-12-06T09:59:33.215Z,94.20
2018-12-06T10:02:01.269Z,93.90
2018-12-06T10:04:28.848Z,93.50
2018-12-06T10:06:58.296Z,93.50
2018-12-06T10:09:25.874Z,93.60
2018-12-06T10:11:54.225Z,93.40
2018-12-06T10:14:23.123Z,93.40
2018-12-06T10:16:50.791Z,93.40
2018-12-06T10:19:18.303Z,93.50
2018-12-06T10:21:45.940Z,93.20
2018-12-06T10:24:13.523Z,93.00
2018-12-06T10:26:41.103Z,93.10
2018-12-06T10:29:08.715Z,92.90
2018-12-06T10:31:37.061Z,92.80
2018-12-06T10:34:04.702Z,92.80
2018-12-06T10:36:32.316Z,92.80
2018-12-06T10:38:59.869Z,92.80
2018-12-06T10:41:27.513Z,92.60
2018-12-06T10:43:55.098Z,92.50
2018-12-06T10:46:23.456Z,92.50
2018-12-06T10:48:51.059Z,92.40
2018-12-06T10:51:37.398Z,92.30
2018-12-06T10:54:05.089Z,92.00
2018-12-06T10:56:32.698Z,91.80
2018-12-06T10:59:00.281Z,91.80
2018-12-06T11:01:47.934Z,91.80
2018-12-06T11:04:15.536Z,91.90
2018-12-06T11:06:43.122Z,92.00
2018-12-06T11:09:11.153Z,92.00
2018-12-06T11:11:38.736Z,92.10
2018-12-06T11:14:06.319Z,92.10
2018-12-06T11:16:33.940Z,92.10
2018-12-06T11:19:02.329Z,92.10
2018-12-06T11:21:31.005Z,92.10
2018-12-06T11:23:59.467Z,92.10
2018-12-06T11:26:27.051Z,92.10
2018-12-06T11:28:56.392Z,91.90
2018-12-06T11:31:23.981Z,91.90
2018-12-06T11:33:52.685Z,91.80
2018-12-06T11:36:20.262Z,91.80
2018-12-06T11:38:47.856Z,91.90
2018-12-06T11:41:15.528Z,92.00
2018-12-06T11:43:43.123Z,92.00
2018-12-06T11:46:10.717Z,92.10
2018-12-06T11:48:38.327Z,92.20
2018-12-06T11:51:05.916Z,92.20
2018-12-06T11:53:34.698Z,92.20
2018-12-06T11:56:02.290Z,92.00
2018-12-06T11:58:30.448Z,92.00
2018-12-06T12:00:57.999Z,91.90
2018-12-06T12:03:25.593Z,91.70
2018-12-06T12:05:58.619Z,91.70
2018-12-06T12:08:20.832Z,91.60
2018-12-06T12:10:48.430Z,91.60
2018-12-06T12:13:16.008Z,91.60
2018-12-06T12:15:43.623Z,91.50
2018-12-06T12:18:11.205Z,91.50
2018-12-06T12:20:38.839Z,91.60
2018-12-06T12:23:06.423Z,91.50
2018-12-06T12:25:34.004Z,91.40
2018-12-06T12:28:04.130Z,91.40
2018-12-06T12:30:33.825Z,91.30
2018-12-06T12:33:02.284Z,91.30
2018-12-06T12:35:29.875Z,91.20
2018-12-06T12:37:57.467Z,91.10
2018-12-06T12:40:25.443Z,91.00
2018-12-06T12:42:53.036Z,91.10
2018-12-06T12:45:23.797Z,91.10
2018-12-06T12:47:51.454Z,91.20
2018-12-06T12:50:19.059Z,91.20
2018-12-06T12:52:46.658Z,91.10
2018-12-06T12:55:14.295Z,91.20
2018-12-06T12:57:41.872Z,91.10
2018-12-06T13:00:10.235Z,91.10
2018-12-06T13:02:37.874Z,91.10
2018-12-06T13:05:05.458Z,91.00
2018-12-06T13:07:33.047Z,91.00
2018-12-06T13:10:02.536Z,90.90
2018-12-06T13:12:30.114Z,90.80
2018-12-06T13:14:58.565Z,90.70
2018-12-06T13:17:26.154Z,90.50
2018-12-06T13:19:53.732Z,90.60
2018-12-06T13:22:21.358Z,90.60
2018-12-06T13:24:48.951Z,90.60
2018-12-06T13:27:16.529Z,90.50
2018-12-06T13:29:44.195Z,90.50
2018-12-06T13:32:11.792Z,90.40
2018-12-06T13:34:39.373Z,90.50
2018-12-06T13:37:07.778Z,90.60
2018-12-06T13:39:35.361Z,90.60
2018-12-06T13:42:02.955Z,90.50
2018-12-06T13:44:30.622Z,90.50
2018-12-06T13:46:58.215Z,90.50
2018-12-06T13:49:26.569Z,90.50
2018-12-06T13:51:54.451Z,90.50
2018-12-06T13:54:26.894Z,90.30
2018-12-06T13:56:49.627Z,90.10
2018-12-06T13:59:17.242Z,89.70
2018-12-06T14:01:45.594Z,90.00
2018-12-06T14:04:13.240Z,90.00
2018-12-06T14:06:40.837Z,90.00
2018-12-06T14:09:08.427Z,90.10
2018-12-06T14:11:36.871Z,90.20
2018-12-06T14:14:04.813Z,90.30
2018-12-06T14:16:32.397Z,90.40
2018-12-06T14:19:00.042Z,90.40
2018-12-06T14:21:27.619Z,90.30
2018-12-06T14:23:55.207Z,90.40
2018-12-06T14:26:22.848Z,90.10
2018-12-06T14:28:50.445Z,90.10
2018-12-06T14:31:18.787Z,90.10
2018-12-06T14:33:46.694Z,90.10
2018-12-06T14:36:15.061Z,90.20
2018-12-06T14:38:43.421Z,90.20
2018-12-06T14:41:11.394Z,90.10
2018-12-06T14:43:38.976Z,90.20
2018-12-06T14:46:06.555Z,90.30
2018-12-06T14:48:34.234Z,90.50
2018-12-06T14:51:01.835Z,90.60
2018-12-06T14:53:29.431Z,90.60
2018-12-06T14:55:57.845Z,90.80
2018-12-06T14:58:25.429Z,90.80
2018-12-06T15:00:53.060Z,90.60
2018-12-06T15:03:20.694Z,90.60
2018-12-06T15:05:48.281Z,90.70
2018-12-06T15:08:15.883Z,90.70
2018-12-06T15:10:43.974Z,90.70
2018-12-06T15:13:11.556Z,90.70
2018-12-06T15:15:39.138Z,90.70
2018-12-06T15:18:07.449Z,90.80
2018-12-06T15:20:35.120Z,90.80
2018-12-06T15:23:02.705Z,91.00
2018-12-06T15:25:30.330Z,91.20
2018-12-06T15:27:57.909Z,91.30
2018-12-06T15:30:25.488Z,91.60
2018-12-06T15:32:53.651Z,91.70
2018-12-06T15:35:21.240Z,91.90
2018-12-06T15:37:49.594Z,92.10
2018-12-06T15:40:17.811Z,92.10
2018-12-06T15:42:45.393Z,92.20
2018-12-06T15:45:12.976Z,92.40
2018-12-06T15:47:41.092Z,92.00
2018-12-06T15:50:09.435Z,92.10
2018-12-06T15:52:37.028Z,92.10
2018-12-06T15:55:05.465Z,92.50
2018-12-06T15:57:33.062Z,92.20
2018-12-06T16:00:00.649Z,92.20
2018-12-06T16:02:28.608Z,92.30
2018-12-06T16:04:56.965Z,92.30
2018-12-06T16:07:24.547Z,92.30
2018-12-06T16:09:52.941Z,92.30
2018-12-06T16:12:20.521Z,92.30
2018-12-06T16:14:48.100Z,92.10
2018-12-06T16:17:15.730Z,92.10
2018-12-06T16:19:43.956Z,92.00
2018-12-06T16:22:11.535Z,92.10
2018-12-06T16:24:39.706Z,92.00
2018-12-06T16:27:07.282Z,92.20
2018-12-06T16:29:35.955Z,92.70
2018-12-06T16:32:03.659Z,92.70
2018-12-06T16:34:32.002Z,93.20
2018-12-06T16:36:59.583Z,93.10
2018-12-06T16:39:27.215Z,93.30
2018-12-06T16:41:54.802Z,93.40
2018-12-06T16:44:23.155Z,93.60
2018-12-06T16:46:51.875Z,93.60
2018-12-06T16:49:20.221Z,93.80
2018-12-06T16:51:47.806Z,93.80
2018-12-06T16:54:16.185Z,94.00
2018-12-06T16:56:44.534Z,94.20
2018-12-06T16:59:12.171Z,94.00
2018-12-06T17:01:39.764Z,94.10
2018-12-06T17:04:07.348Z,94.20
2018-12-06T17:06:35.693Z,94.30
2018-12-06T17:09:03.274Z,94.40
2018-12-06T17:11:30.859Z,94.40
2018-12-06T17:13:59.253Z,95.00
2018-12-06T17:16:26.839Z,94.90
2018-12-06T17:18:54.440Z,94.50
2018-12-06T17:21:22.094Z,94.50
2018-12-06T17:23:49.675Z,94.50
2018-12-06T17:26:17.284Z,94.60
2018-12-06T17:28:44.935Z,94.80
2018-12-06T17:31:12.896Z,94.40
2018-12-06T17:33:40.305Z,94.30
2018-12-06T17:36:07.948Z,94.30
2018-12-06T17:38:35.538Z,94.30
2018-12-06T17:41:03.135Z,94.40
2018-12-06T17:43:31.500Z,94.00
2018-12-06T17:45:59.092Z,94.00
2018-12-06T17:48:26.731Z,94.00
2018-12-06T17:50:55.130Z,94.00
2018-12-06T17:53:22.806Z,94.00
2018-12-06T17:55:50.421Z,94.00
2018-12-06T17:58:18.012Z,94.40
2018-12-06T18:00:46.408Z,94.10
2018-12-06T18:03:13.986Z,94.00
2018-12-06T18:05:41.569Z,94.20
2018-12-06T18:08:09.192Z,94.30
2018-12-06T18:10:36.777Z,94.40
2018-12-06T18:13:04.406Z,94.70
2018-12-06T18:15:32.002Z,94.40
2018-12-06T18:17:59.565Z,94.40
2018-12-06T18:20:27.177Z,94.40
2018-12-06T18:22:55.535Z,94.60
2018-12-06T18:25:23.170Z,94.50
2018-12-06T18:27:50.756Z,94.60
2018-12-06T18:30:18.337Z,95.20
2018-12-06T18:32:46.732Z,94.40
2018-12-06T18:35:15.082Z,94.30
2018-12-06T18:37:42.705Z,94.30
2018-12-06T18:40:10.336Z,94.40
2018-12-06T18:42:37.876Z,94.30
2018-12-06T18:45:05.813Z,94.40
2018-12-06T18:47:33.403Z,94.60
2018-12-06T18:50:01.786Z,94.30
2018-12-06T18:52:29.379Z,94.20
2018-12-06T18:54:56.957Z,94.30
2018-12-06T18:57:24.597Z,93.90
2018-12-06T18:59:52.953Z,93.80
2018-12-06T19:02:20.812Z,93.80
2018-12-06T19:04:48.404Z,93.80
2018-12-06T19:07:16.749Z,93.80
2018-12-06T19:09:44.358Z,93.80
2018-12-06T19:12:11.938Z,93.80
2018-12-06T19:14:39.575Z,93.90
2018-12-06T19:17:07.946Z,94.00
2018-12-06T19:19:38.656Z,94.00
2018-12-06T19:22:06.292Z,93.80
2018-12-06T19:24:33.866Z,93.80
2018-12-06T19:27:02.309Z,93.70
2018-12-06T19:29:29.892Z,93.70
2018-12-06T19:31:57.482Z,93.70
2018-12-06T19:34:25.095Z,93.80
2018-12-06T19:36:52.879Z,93.80
2018-12-06T19:39:20.517Z,94.20
2018-12-06T19:41:48.106Z,94.00
2018-12-06T19:44:15.721Z,94.00
2018-12-06T19:46:44.096Z,94.20
2018-12-06T19:49:12.447Z,94.40
2018-12-06T19:51:40.651Z,94.20
2018-12-06T19:54:08.233Z,94.20
2018-12-06T19:56:35.815Z,94.20
2018-12-06T19:59:03.420Z,94.10
2018-12-06T20:01:31.007Z,94.10
2018-12-06T20:04:00.374Z,94.00
2018-12-06T20:06:27.957Z,94.00
2018-12-06T20:08:55.788Z,93.70
2018-12-06T20:11:23.407Z,93.70
2018-12-06T20:13:51.757Z,93.10
2018-12-06T20:16:19.906Z,93.10
2018-12-06T20:18:47.496Z,93.00
2018-12-06T20:21:15.088Z,93.10
2018-12-06T20:23:43.641Z,93.40
2018-12-06T20:26:11.188Z,93.30
2018-12-06T20:28:39.579Z,93.10
2018-12-06T20:31:07.166Z,93.10
2018-12-06T20:33:35.803Z,93.50
2018-12-06T20:36:03.431Z,93.50
2018-12-06T20:38:31.012Z,93.20
2018-12-06T20:40:58.599Z,93.20
2018-12-06T20:43:26.206Z,93.30
2018-12-06T20:45:54.553Z,93.50
2018-12-06T20:48:22.189Z,93.50
2018-12-06T20:50:49.777Z,93.60
2018-12-06T20:53:17.374Z,93.70
2018-12-06T20:55:44.993Z,93.90
2018-12-06T20:58:15.197Z,93.90
2018-12-06T21:00:40.211Z,94.00
2018-12-06T21:03:07.844Z,94.00
2018-12-06T21:05:35.426Z,94.10
2018-12-06T21:08:03.014Z,94.20
2018-12-06T21:10:30.989Z,94.30
2018-12-06T21:12:58.589Z,94.20
2018-12-06T21:15:26.173Z,94.30
2018-12-06T21:17:53.816Z,94.70
2018-12-06T21:20:21.401Z,94.40
2018-12-06T21:22:49.010Z,94.40
2018-12-06T21:25:16.692Z,94.50
2018-12-06T21:27:45.077Z,94.60
2018-12-06T21:30:12.665Z,94.60
2018-12-06T21:32:40.676Z,94.60
2018-12-06T21:35:08.259Z,94.70
2018-12-06T21:37:36.619Z,94.80
2018-12-06T21:40:05.752Z,94.80
2018-12-06T21:42:32.279Z,94.90
2018-12-06T21:44:59.862Z,94.90
2018-12-06T21:47:27.513Z,95.00
2018-12-06T21:49:55.848Z,95.10
2018-12-06T21:52:23.435Z,95.10
2018-12-06T21:54:51.413Z,95.10
2018-12-06T21:57:18.993Z,95.10
2018-12-06T21:59:46.601Z,95.10
2018-12-06T22:02:19.917Z,95.10
2018-12-06T22:04:47.545Z,95.20
2018-12-06T22:07:15.124Z,95.30
2018-12-06T22:09:42.710Z,95.30
2018-12-06T22:12:10.381Z,95.30
2018-12-06T22:14:38.726Z,95.40
2018-12-06T22:17:06.312Z,95.30
2018-12-06T22:19:34.717Z,96.00
2018-12-06T22:22:02.305Z,95.60
2018-12-06T22:24:29.909Z,95.20
2018-12-06T22:26:57.515Z,95.10
2018-12-06T22:29:25.103Z,95.10
2018-12-06T22:31:53.428Z,95.10
2018-12-06T22:34:21.020Z,95.10
2018-12-06T22:36:48.600Z,95.20
2018-12-06T22:39:16.234Z,95.20
2018-12-06T22:41:43.817Z,95.20
2018-12-06T22:44:11.405Z,95.30
2018-12-06T22:46:39.083Z,95.20
2018-12-06T22:49:06.676Z,95.20
2018-12-06T22:51:35.390Z,95.20
2018-12-06T22:54:02.970Z,95.10
2018-12-06T22:56:30.564Z,95.10
2018-12-06T22:58:58.996Z,95.10
2018-12-06T23:01:42.224Z,94.70
2018-12-06T23:04:09.876Z,94.70
2018-12-06T23:06:38.200Z,94.70
2018-12-06T23:09:05.788Z,94.70
2018-12-06T23:11:34.594Z,94.80
2018-12-06T23:14:02.234Z,94.80
2018-12-06T23:16:30.674Z,94.50
2018-12-06T23:18:58.173Z,94.50
2018-12-06T23:21:27.454Z,94.60
2018-12-06T23:23:55.038Z,94.60
2018-12-06T23:26:23.388Z,94.90
2018-12-06T23:28:51.010Z,94.60
2018-12-06T23:31:18.591Z,94.30
2018-12-06T23:33:46.220Z,94.30
2018-12-06T23:36:13.810Z,94.40
2018-12-06T23:38:41.395Z,94.40
2018-12-06T23:41:09.001Z,94.40
2018-12-06T23:43:36.587Z,94.40
2018-12-06T23:46:04.364Z,94.50
2018-12-06T23:48:31.949Z,94.50
2018-12-06T23:50:59.528Z,94.60
2018-12-06T23:53:27.187Z,94.60
2018-12-06T23:55:54.782Z,94.50
2018-12-06T23:58:22.377Z,94.30
